sensor_id;sensor_type;location;lat;lon;timestamp;P1;durP1;ratioP1;P2;durP2;ratioP2
8574;SDS011;4325;42.520;27.448;2023-03-14T00:00:02;14.97;;;7.97;;
8574;SDS011;4325;42.520;27.448;2023-03-14T00:02:33;12.00;;;7.60;;
8574;SDS011;4325;42.520;27.448;2023-03-14T00:05:00;13.57;;;7.87;;
8574;SDS011;4325;42.520;27.448;2023-03-14T00:07:32;14.73;;;7.30;;
8574;SDS011;4325;42.520;27.448;2023-03-14T00:10:00;16.87;;;7.90;;
8574;SDS011;4325;42.520;27.448;2023-03-14T00:12:31;15.07;;;7.80;;
8574;SDS011;4325;42.520;27.448;2023-03-14T00:14:58;13.43;;;7.40;;
8574;SDS011;4325;42.520;27.448;2023-03-14T00:17:28;11.00;;;6.93;;
8574;SDS011;4325;42.520;27.448;2023-03-14T00:19:55;12.73;;;8.17;;
8574;SDS011;4325;42.520;27.448;2023-03-14T00:22:22;9.57;;;7.23;;
8574;SDS011;4325;42.520;27.448;2023-03-14T00:24:49;14.00;;;6.63;;
8574;SDS011;4325;42.520;27.448;2023-03-14T00:27:16;12.73;;;7.10;;
8574;SDS011;4325;42.520;27.448;2023-03-14T00:29:45;10.87;;;6.23;;
8574;SDS011;4325;42.520;27.448;2023-03-14T00:32:11;13.57;;;7.53;;
8574;SDS011;4325;42.520;27.448;2023-03-14T00:34:38;14.03;;;7.57;;
8574;SDS011;4325;42.520;27.448;2023-03-14T00:37:05;12.57;;;7.53;;
8574;SDS011;4325;42.520;27.448;2023-03-14T00:39:32;17.30;;;8.77;;
8574;SDS011;4325;42.520;27.448;2023-03-14T00:41:59;14.33;;;8.93;;
8574;SDS011;4325;42.520;27.448;2023-03-14T00:44:26;22.73;;;11.57;;
8574;SDS011;4325;42.520;27.448;2023-03-14T00:46:54;26.47;;;13.20;;
8574;SDS011;4325;42.520;27.448;2023-03-14T00:49:22;27.47;;;14.10;;
8574;SDS011;4325;42.520;27.448;2023-03-14T00:51:49;29.40;;;15.67;;
8574;SDS011;4325;42.520;27.448;2023-03-14T00:54:16;31.27;;;15.40;;
8574;SDS011;4325;42.520;27.448;2023-03-14T00:56:43;32.77;;;15.53;;
8574;SDS011;4325;42.520;27.448;2023-03-14T00:59:10;20.53;;;12.23;;
8574;SDS011;4325;42.520;27.448;2023-03-14T01:01:37;33.87;;;14.77;;
8574;SDS011;4325;42.520;27.448;2023-03-14T01:04:06;24.97;;;12.70;;
8574;SDS011;4325;42.520;27.448;2023-03-14T01:06:33;23.20;;;13.07;;
8574;SDS011;4325;42.520;27.448;2023-03-14T01:09:00;25.20;;;12.57;;
8574;SDS011;4325;42.520;27.448;2023-03-14T01:11:28;20.53;;;12.60;;
8574;SDS011;4325;42.520;27.448;2023-03-14T01:13:57;14.30;;;10.07;;
8574;SDS011;4325;42.520;27.448;2023-03-14T01:16:26;18.87;;;10.67;;
8574;SDS011;4325;42.520;27.448;2023-03-14T01:18:54;19.13;;;11.27;;
8574;SDS011;4325;42.520;27.448;2023-03-14T01:21:23;19.07;;;10.77;;
8574;SDS011;4325;42.520;27.448;2023-03-14T01:23:51;15.53;;;9.00;;
8574;SDS011;4325;42.520;27.448;2023-03-14T01:26:19;16.00;;;8.57;;
8574;SDS011;4325;42.520;27.448;2023-03-14T01:28:48;14.43;;;8.30;;
8574;SDS011;4325;42.520;27.448;2023-03-14T01:31:16;13.17;;;7.80;;
8574;SDS011;4325;42.520;27.448;2023-03-14T01:33:44;15.73;;;7.57;;
8574;SDS011;4325;42.520;27.448;2023-03-14T01:36:12;12.07;;;8.07;;
8574;SDS011;4325;42.520;27.448;2023-03-14T01:38:41;11.43;;;8.37;;
8574;SDS011;4325;42.520;27.448;2023-03-14T01:41:10;14.63;;;8.50;;
8574;SDS011;4325;42.520;27.448;2023-03-14T01:43:40;25.73;;;13.53;;
8574;SDS011;4325;42.520;27.448;2023-03-14T01:46:26;36.80;;;16.73;;
8574;SDS011;4325;42.520;27.448;2023-03-14T01:49:02;27.20;;;15.53;;
8574;SDS011;4325;42.520;27.448;2023-03-14T01:51:34;24.47;;;15.77;;
8574;SDS011;4325;42.520;27.448;2023-03-14T01:54:08;18.03;;;9.13;;
8574;SDS011;4325;42.520;27.448;2023-03-14T01:56:40;12.30;;;7.57;;
8574;SDS011;4325;42.520;27.448;2023-03-14T01:59:09;13.17;;;6.57;;
8574;SDS011;4325;42.520;27.448;2023-03-14T02:01:37;9.83;;;5.63;;
8574;SDS011;4325;42.520;27.448;2023-03-14T02:04:07;13.27;;;6.63;;
8574;SDS011;4325;42.520;27.448;2023-03-14T02:06:37;10.50;;;6.47;;
8574;SDS011;4325;42.520;27.448;2023-03-14T02:09:11;11.57;;;6.33;;
8574;SDS011;4325;42.520;27.448;2023-03-14T02:11:38;12.40;;;6.10;;
8574;SDS011;4325;42.520;27.448;2023-03-14T02:14:06;11.37;;;6.80;;
8574;SDS011;4325;42.520;27.448;2023-03-14T02:16:40;10.30;;;6.30;;
8574;SDS011;4325;42.520;27.448;2023-03-14T02:19:07;13.23;;;6.30;;
8574;SDS011;4325;42.520;27.448;2023-03-14T02:21:38;9.77;;;6.27;;
8574;SDS011;4325;42.520;27.448;2023-03-14T02:24:19;9.27;;;5.80;;
8574;SDS011;4325;42.520;27.448;2023-03-14T02:27:02;8.63;;;6.37;;
8574;SDS011;4325;42.520;27.448;2023-03-14T02:29:33;12.10;;;6.90;;
8574;SDS011;4325;42.520;27.448;2023-03-14T02:32:03;12.80;;;6.17;;
8574;SDS011;4325;42.520;27.448;2023-03-14T02:34:31;8.33;;;5.83;;
8574;SDS011;4325;42.520;27.448;2023-03-14T02:36:59;10.07;;;5.87;;
8574;SDS011;4325;42.520;27.448;2023-03-14T02:39:27;9.47;;;5.63;;
8574;SDS011;4325;42.520;27.448;2023-03-14T02:42:02;12.63;;;5.70;;
8574;SDS011;4325;42.520;27.448;2023-03-14T02:44:29;12.70;;;5.67;;
8574;SDS011;4325;42.520;27.448;2023-03-14T02:46:56;6.27;;;4.80;;
8574;SDS011;4325;42.520;27.448;2023-03-14T02:49:23;7.30;;;4.73;;
8574;SDS011;4325;42.520;27.448;2023-03-14T02:51:53;9.37;;;5.13;;
8574;SDS011;4325;42.520;27.448;2023-03-14T02:54:20;6.13;;;4.23;;
8574;SDS011;4325;42.520;27.448;2023-03-14T02:56:47;7.20;;;4.97;;
8574;SDS011;4325;42.520;27.448;2023-03-14T02:59:15;10.90;;;6.80;;
8574;SDS011;4325;42.520;27.448;2023-03-14T03:01:42;10.37;;;4.97;;
8574;SDS011;4325;42.520;27.448;2023-03-14T03:04:09;8.47;;;5.03;;
8574;SDS011;4325;42.520;27.448;2023-03-14T03:06:36;11.80;;;5.60;;
8574;SDS011;4325;42.520;27.448;2023-03-14T03:09:03;15.63;;;6.97;;
8574;SDS011;4325;42.520;27.448;2023-03-14T03:11:29;12.90;;;6.77;;
8574;SDS011;4325;42.520;27.448;2023-03-14T03:13:57;16.10;;;8.83;;
8574;SDS011;4325;42.520;27.448;2023-03-14T03:16:25;20.20;;;11.30;;
8574;SDS011;4325;42.520;27.448;2023-03-14T03:18:52;20.13;;;12.23;;
8574;SDS011;4325;42.520;27.448;2023-03-14T03:21:18;24.33;;;12.90;;
8574;SDS011;4325;42.520;27.448;2023-03-14T03:23:48;26.53;;;13.67;;
8574;SDS011;4325;42.520;27.448;2023-03-14T03:26:15;20.70;;;11.33;;
8574;SDS011;4325;42.520;27.448;2023-03-14T03:28:42;24.23;;;11.63;;
8574;SDS011;4325;42.520;27.448;2023-03-14T03:31:09;14.57;;;9.43;;
8574;SDS011;4325;42.520;27.448;2023-03-14T03:33:38;21.50;;;11.23;;
8574;SDS011;4325;42.520;27.448;2023-03-14T03:36:05;26.97;;;13.10;;
8574;SDS011;4325;42.520;27.448;2023-03-14T03:38:33;33.97;;;13.70;;
8574;SDS011;4325;42.520;27.448;2023-03-14T03:41:01;16.33;;;10.13;;
8574;SDS011;4325;42.520;27.448;2023-03-14T03:43:30;14.00;;;8.37;;
8574;SDS011;4325;42.520;27.448;2023-03-14T03:45:56;16.50;;;8.70;;
8574;SDS011;4325;42.520;27.448;2023-03-14T03:48:23;14.30;;;7.53;;
8574;SDS011;4325;42.520;27.448;2023-03-14T03:50:52;15.97;;;6.90;;
8574;SDS011;4325;42.520;27.448;2023-03-14T03:53:18;15.33;;;7.80;;
8574;SDS011;4325;42.520;27.448;2023-03-14T03:55:45;13.87;;;8.33;;
8574;SDS011;4325;42.520;27.448;2023-03-14T03:58:12;11.83;;;7.53;;
8574;SDS011;4325;42.520;27.448;2023-03-14T04:00:39;11.83;;;7.53;;
8574;SDS011;4325;42.520;27.448;2023-03-14T04:03:06;10.67;;;6.70;;
8574;SDS011;4325;42.520;27.448;2023-03-14T04:05:33;10.53;;;7.03;;
8574;SDS011;4325;42.520;27.448;2023-03-14T04:08:02;15.27;;;9.27;;
8574;SDS011;4325;42.520;27.448;2023-03-14T04:10:29;13.20;;;7.97;;
8574;SDS011;4325;42.520;27.448;2023-03-14T04:12:55;13.57;;;8.47;;
8574;SDS011;4325;42.520;27.448;2023-03-14T04:15:22;17.93;;;8.70;;
8574;SDS011;4325;42.520;27.448;2023-03-14T04:17:49;14.73;;;8.97;;
8574;SDS011;4325;42.520;27.448;2023-03-14T04:20:16;13.50;;;8.37;;
8574;SDS011;4325;42.520;27.448;2023-03-14T04:22:43;15.57;;;7.50;;
8574;SDS011;4325;42.520;27.448;2023-03-14T04:25:11;10.33;;;6.03;;
8574;SDS011;4325;42.520;27.448;2023-03-14T04:27:38;10.70;;;6.13;;
8574;SDS011;4325;42.520;27.448;2023-03-14T04:30:05;9.47;;;6.23;;
8574;SDS011;4325;42.520;27.448;2023-03-14T04:32:33;14.37;;;6.93;;
8574;SDS011;4325;42.520;27.448;2023-03-14T04:35:00;11.27;;;6.63;;
8574;SDS011;4325;42.520;27.448;2023-03-14T04:37:26;10.43;;;6.80;;
8574;SDS011;4325;42.520;27.448;2023-03-14T04:39:53;13.90;;;8.10;;
8574;SDS011;4325;42.520;27.448;2023-03-14T04:42:21;12.50;;;8.30;;
8574;SDS011;4325;42.520;27.448;2023-03-14T04:44:48;22.37;;;9.47;;
8574;SDS011;4325;42.520;27.448;2023-03-14T04:47:15;27.77;;;10.70;;
8574;SDS011;4325;42.520;27.448;2023-03-14T04:49:42;19.93;;;11.90;;
8574;SDS011;4325;42.520;27.448;2023-03-14T04:52:09;26.73;;;13.97;;
8574;SDS011;4325;42.520;27.448;2023-03-14T04:54:36;30.63;;;15.10;;
8574;SDS011;4325;42.520;27.448;2023-03-14T04:57:02;24.07;;;13.17;;
8574;SDS011;4325;42.520;27.448;2023-03-14T04:59:31;23.90;;;15.07;;
8574;SDS011;4325;42.520;27.448;2023-03-14T05:01:57;32.47;;;15.87;;
8574;SDS011;4325;42.520;27.448;2023-03-14T05:04:24;36.37;;;18.20;;
8574;SDS011;4325;42.520;27.448;2023-03-14T05:06:51;35.10;;;16.20;;
8574;SDS011;4325;42.520;27.448;2023-03-14T05:09:18;30.53;;;16.90;;
8574;SDS011;4325;42.520;27.448;2023-03-14T05:11:45;27.00;;;15.60;;
8574;SDS011;4325;42.520;27.448;2023-03-14T05:14:12;23.17;;;13.33;;
8574;SDS011;4325;42.520;27.448;2023-03-14T05:16:40;23.97;;;13.57;;
8574;SDS011;4325;42.520;27.448;2023-03-14T05:19:07;20.50;;;10.93;;
8574;SDS011;4325;42.520;27.448;2023-03-14T05:21:33;14.10;;;9.13;;
8574;SDS011;4325;42.520;27.448;2023-03-14T05:24:00;18.90;;;9.83;;
8574;SDS011;4325;42.520;27.448;2023-03-14T05:26:27;18.40;;;10.83;;
8574;SDS011;4325;42.520;27.448;2023-03-14T05:28:54;18.17;;;9.70;;
8574;SDS011;4325;42.520;27.448;2023-03-14T05:31:21;23.83;;;11.07;;
8574;SDS011;4325;42.520;27.448;2023-03-14T05:33:49;18.43;;;9.83;;
8574;SDS011;4325;42.520;27.448;2023-03-14T05:36:16;20.47;;;10.63;;
8574;SDS011;4325;42.520;27.448;2023-03-14T05:38:43;17.97;;;9.43;;
8574;SDS011;4325;42.520;27.448;2023-03-14T05:41:09;28.73;;;15.40;;
8574;SDS011;4325;42.520;27.448;2023-03-14T05:43:36;24.27;;;13.17;;
8574;SDS011;4325;42.520;27.448;2023-03-14T05:46:04;23.67;;;13.67;;
8574;SDS011;4325;42.520;27.448;2023-03-14T05:48:31;21.30;;;12.07;;
8574;SDS011;4325;42.520;27.448;2023-03-14T05:51:00;16.63;;;9.97;;
8574;SDS011;4325;42.520;27.448;2023-03-14T05:53:27;16.67;;;8.50;;
8574;SDS011;4325;42.520;27.448;2023-03-14T05:55:55;15.30;;;9.27;;
8574;SDS011;4325;42.520;27.448;2023-03-14T05:58:22;16.33;;;8.50;;
8574;SDS011;4325;42.520;27.448;2023-03-14T06:00:50;16.60;;;8.50;;
8574;SDS011;4325;42.520;27.448;2023-03-14T06:03:17;15.07;;;7.67;;
8574;SDS011;4325;42.520;27.448;2023-03-14T06:05:44;15.93;;;9.33;;
8574;SDS011;4325;42.520;27.448;2023-03-14T06:08:12;17.50;;;9.40;;
8574;SDS011;4325;42.520;27.448;2023-03-14T06:10:39;19.00;;;11.07;;
8574;SDS011;4325;42.520;27.448;2023-03-14T06:13:06;16.07;;;10.70;;
8574;SDS011;4325;42.520;27.448;2023-03-14T06:15:33;18.07;;;10.83;;
8574;SDS011;4325;42.520;27.448;2023-03-14T06:18:01;23.80;;;12.30;;
8574;SDS011;4325;42.520;27.448;2023-03-14T06:20:28;27.23;;;13.73;;
8574;SDS011;4325;42.520;27.448;2023-03-14T06:22:55;19.33;;;10.30;;
8574;SDS011;4325;42.520;27.448;2023-03-14T06:25:23;14.63;;;9.93;;
8574;SDS011;4325;42.520;27.448;2023-03-14T06:27:50;22.80;;;12.97;;
8574;SDS011;4325;42.520;27.448;2023-03-14T06:30:17;23.67;;;12.50;;
8574;SDS011;4325;42.520;27.448;2023-03-14T06:32:44;22.37;;;13.17;;
8574;SDS011;4325;42.520;27.448;2023-03-14T06:35:10;20.13;;;11.40;;
8574;SDS011;4325;42.520;27.448;2023-03-14T06:37:37;23.87;;;11.67;;
8574;SDS011;4325;42.520;27.448;2023-03-14T06:40:04;27.63;;;13.73;;
8574;SDS011;4325;42.520;27.448;2023-03-14T06:42:34;27.47;;;12.97;;
8574;SDS011;4325;42.520;27.448;2023-03-14T06:45:01;22.90;;;13.70;;
8574;SDS011;4325;42.520;27.448;2023-03-14T06:47:28;25.23;;;12.90;;
8574;SDS011;4325;42.520;27.448;2023-03-14T06:49:54;24.70;;;9.87;;
8574;SDS011;4325;42.520;27.448;2023-03-14T06:52:21;12.23;;;8.40;;
8574;SDS011;4325;42.520;27.448;2023-03-14T06:54:48;15.70;;;9.13;;
8574;SDS011;4325;42.520;27.448;2023-03-14T06:57:15;13.70;;;8.37;;
8574;SDS011;4325;42.520;27.448;2023-03-14T06:59:43;14.23;;;8.67;;
8574;SDS011;4325;42.520;27.448;2023-03-14T07:02:10;13.77;;;9.00;;
8574;SDS011;4325;42.520;27.448;2023-03-14T07:04:37;12.23;;;7.27;;
8574;SDS011;4325;42.520;27.448;2023-03-14T07:07:04;11.37;;;7.43;;
8574;SDS011;4325;42.520;27.448;2023-03-14T07:09:31;14.17;;;6.53;;
8574;SDS011;4325;42.520;27.448;2023-03-14T07:11:58;12.77;;;7.13;;
8574;SDS011;4325;42.520;27.448;2023-03-14T07:14:25;14.43;;;7.83;;
8574;SDS011;4325;42.520;27.448;2023-03-14T07:16:53;14.07;;;8.40;;
8574;SDS011;4325;42.520;27.448;2023-03-14T07:19:20;12.10;;;7.20;;
8574;SDS011;4325;42.520;27.448;2023-03-14T07:21:47;12.60;;;5.83;;
8574;SDS011;4325;42.520;27.448;2023-03-14T07:24:14;10.03;;;6.03;;
8574;SDS011;4325;42.520;27.448;2023-03-14T07:26:41;11.23;;;5.37;;
8574;SDS011;4325;42.520;27.448;2023-03-14T07:29:08;10.77;;;6.47;;
8574;SDS011;4325;42.520;27.448;2023-03-14T07:31:34;12.57;;;7.97;;
8574;SDS011;4325;42.520;27.448;2023-03-14T07:34:03;11.00;;;6.60;;
8574;SDS011;4325;42.520;27.448;2023-03-14T07:36:30;10.60;;;6.70;;
8574;SDS011;4325;42.520;27.448;2023-03-14T07:38:56;12.73;;;7.30;;
8574;SDS011;4325;42.520;27.448;2023-03-14T07:41:23;9.47;;;6.80;;
8574;SDS011;4325;42.520;27.448;2023-03-14T07:43:50;9.97;;;7.67;;
8574;SDS011;4325;42.520;27.448;2023-03-14T07:46:17;16.47;;;9.73;;
8574;SDS011;4325;42.520;27.448;2023-03-14T07:48:44;13.17;;;8.27;;
8574;SDS011;4325;42.520;27.448;2023-03-14T07:51:12;12.77;;;7.50;;
8574;SDS011;4325;42.520;27.448;2023-03-14T07:53:39;10.27;;;7.93;;
8574;SDS011;4325;42.520;27.448;2023-03-14T07:56:06;14.00;;;6.80;;
8574;SDS011;4325;42.520;27.448;2023-03-14T07:58:33;11.50;;;8.23;;
8574;SDS011;4325;42.520;27.448;2023-03-14T08:01:03;16.43;;;8.07;;
8574;SDS011;4325;42.520;27.448;2023-03-14T08:03:30;9.57;;;8.57;;
8574;SDS011;4325;42.520;27.448;2023-03-14T08:05:57;11.77;;;7.83;;
8574;SDS011;4325;42.520;27.448;2023-03-14T08:08:25;15.73;;;8.37;;
8574;SDS011;4325;42.520;27.448;2023-03-14T08:10:52;14.50;;;7.07;;
8574;SDS011;4325;42.520;27.448;2023-03-14T08:13:19;7.13;;;4.90;;
8574;SDS011;4325;42.520;27.448;2023-03-14T08:15:47;11.93;;;4.70;;
8574;SDS011;4325;42.520;27.448;2023-03-14T08:18:16;9.37;;;4.10;;
8574;SDS011;4325;42.520;27.448;2023-03-14T08:20:43;5.10;;;3.93;;
8574;SDS011;4325;42.520;27.448;2023-03-14T08:23:09;10.93;;;3.97;;
8574;SDS011;4325;42.520;27.448;2023-03-14T08:25:38;4.10;;;2.37;;
8574;SDS011;4325;42.520;27.448;2023-03-14T08:28:05;5.20;;;2.50;;
8574;SDS011;4325;42.520;27.448;2023-03-14T08:30:32;6.10;;;2.23;;
8574;SDS011;4325;42.520;27.448;2023-03-14T08:32:59;5.83;;;2.97;;
8574;SDS011;4325;42.520;27.448;2023-03-14T08:35:25;4.50;;;2.20;;
8574;SDS011;4325;42.520;27.448;2023-03-14T08:37:53;3.83;;;2.03;;
8574;SDS011;4325;42.520;27.448;2023-03-14T08:40:20;4.40;;;2.00;;
8574;SDS011;4325;42.520;27.448;2023-03-14T08:42:49;5.20;;;2.70;;
8574;SDS011;4325;42.520;27.448;2023-03-14T08:45:15;4.27;;;2.03;;
8574;SDS011;4325;42.520;27.448;2023-03-14T08:47:43;5.77;;;2.77;;
8574;SDS011;4325;42.520;27.448;2023-03-14T08:50:10;3.70;;;2.07;;
8574;SDS011;4325;42.520;27.448;2023-03-14T08:52:38;3.63;;;1.93;;
8574;SDS011;4325;42.520;27.448;2023-03-14T08:55:07;4.33;;;2.00;;
8574;SDS011;4325;42.520;27.448;2023-03-14T08:57:34;5.47;;;2.33;;
8574;SDS011;4325;42.520;27.448;2023-03-14T09:00:03;5.60;;;2.73;;
8574;SDS011;4325;42.520;27.448;2023-03-14T09:02:35;8.33;;;2.53;;
8574;SDS011;4325;42.520;27.448;2023-03-14T09:05:02;5.37;;;2.30;;
8574;SDS011;4325;42.520;27.448;2023-03-14T09:07:29;5.87;;;2.70;;
8574;SDS011;4325;42.520;27.448;2023-03-14T09:09:56;4.30;;;2.70;;
8574;SDS011;4325;42.520;27.448;2023-03-14T09:12:23;5.67;;;2.63;;
8574;SDS011;4325;42.520;27.448;2023-03-14T09:14:50;6.37;;;2.60;;
8574;SDS011;4325;42.520;27.448;2023-03-14T09:17:18;4.83;;;2.20;;
8574;SDS011;4325;42.520;27.448;2023-03-14T09:19:45;7.47;;;2.70;;
8574;SDS011;4325;42.520;27.448;2023-03-14T09:22:12;5.30;;;2.80;;
8574;SDS011;4325;42.520;27.448;2023-03-14T09:24:39;5.37;;;2.73;;
8574;SDS011;4325;42.520;27.448;2023-03-14T09:27:06;6.13;;;3.13;;
8574;SDS011;4325;42.520;27.448;2023-03-14T09:29:33;10.40;;;3.70;;
8574;SDS011;4325;42.520;27.448;2023-03-14T09:32:00;4.73;;;2.90;;
8574;SDS011;4325;42.520;27.448;2023-03-14T09:34:29;6.53;;;3.00;;
8574;SDS011;4325;42.520;27.448;2023-03-14T09:36:56;5.57;;;3.70;;
8574;SDS011;4325;42.520;27.448;2023-03-14T09:39:23;6.43;;;3.03;;
8574;SDS011;4325;42.520;27.448;2023-03-14T09:41:50;5.67;;;3.43;;
8574;SDS011;4325;42.520;27.448;2023-03-14T09:44:21;8.63;;;4.10;;
8574;SDS011;4325;42.520;27.448;2023-03-14T09:46:51;6.57;;;3.77;;
8574;SDS011;4325;42.520;27.448;2023-03-14T09:49:20;6.87;;;4.00;;
8574;SDS011;4325;42.520;27.448;2023-03-14T09:51:52;10.63;;;3.90;;
8574;SDS011;4325;42.520;27.448;2023-03-14T09:54:27;8.47;;;4.10;;
8574;SDS011;4325;42.520;27.448;2023-03-14T09:57:00;5.87;;;3.50;;
8574;SDS011;4325;42.520;27.448;2023-03-14T09:59:28;6.20;;;4.07;;
8574;SDS011;4325;42.520;27.448;2023-03-14T10:01:56;5.10;;;3.33;;
8574;SDS011;4325;42.520;27.448;2023-03-14T10:04:26;6.57;;;3.30;;
8574;SDS011;4325;42.520;27.448;2023-03-14T10:06:56;4.53;;;2.97;;
8574;SDS011;4325;42.520;27.448;2023-03-14T10:09:23;6.90;;;3.37;;
8574;SDS011;4325;42.520;27.448;2023-03-14T10:11:52;5.43;;;3.40;;
8574;SDS011;4325;42.520;27.448;2023-03-14T10:14:31;4.43;;;3.10;;
8574;SDS011;4325;42.520;27.448;2023-03-14T10:17:05;4.97;;;2.72;;
8574;SDS011;4325;42.520;27.448;2023-03-14T10:19:35;6.90;;;3.30;;
8574;SDS011;4325;42.520;27.448;2023-03-14T10:22:04;3.55;;;2.65;;
8574;SDS011;4325;42.520;27.448;2023-03-14T10:24:33;7.93;;;2.85;;
8574;SDS011;4325;42.520;27.448;2023-03-14T10:27:01;7.47;;;2.45;;
8574;SDS011;4325;42.520;27.448;2023-03-14T10:29:30;3.88;;;2.22;;
8574;SDS011;4325;42.520;27.448;2023-03-14T10:32:00;5.57;;;2.60;;
8574;SDS011;4325;42.520;27.448;2023-03-14T10:34:29;3.95;;;2.17;;
8574;SDS011;4325;42.520;27.448;2023-03-14T10:36:58;4.82;;;2.65;;
8574;SDS011;4325;42.520;27.448;2023-03-14T10:39:36;4.10;;;2.47;;
8574;SDS011;4325;42.520;27.448;2023-03-14T10:42:12;4.20;;;2.53;;
8574;SDS011;4325;42.520;27.448;2023-03-14T10:44:43;4.78;;;2.40;;
8574;SDS011;4325;42.520;27.448;2023-03-14T10:47:15;2.83;;;2.08;;
8574;SDS011;4325;42.520;27.448;2023-03-14T10:49:45;5.07;;;2.58;;
8574;SDS011;4325;42.520;27.448;2023-03-14T10:52:13;4.55;;;2.53;;
8574;SDS011;4325;42.520;27.448;2023-03-14T10:54:48;5.53;;;2.83;;
8574;SDS011;4325;42.520;27.448;2023-03-14T10:57:20;4.90;;;2.60;;
8574;SDS011;4325;42.520;27.448;2023-03-14T10:59:47;6.65;;;3.05;;
8574;SDS011;4325;42.520;27.448;2023-03-14T11:02:19;7.82;;;4.70;;
8574;SDS011;4325;42.520;27.448;2023-03-14T11:05:06;3.42;;;2.35;;
8574;SDS011;4325;42.520;27.448;2023-03-14T11:07:44;6.32;;;5.00;;
8574;SDS011;4325;42.520;27.448;2023-03-14T11:10:17;6.35;;;2.55;;
8574;SDS011;4325;42.520;27.448;2023-03-14T11:12:50;3.83;;;2.58;;
8574;SDS011;4325;42.520;27.448;2023-03-14T11:15:29;3.83;;;3.17;;
8574;SDS011;4325;42.520;27.448;2023-03-14T11:18:06;6.32;;;2.80;;
8574;SDS011;4325;42.520;27.448;2023-03-14T11:20:46;7.93;;;2.53;;
8574;SDS011;4325;42.520;27.448;2023-03-14T11:23:20;8.70;;;2.47;;
8574;SDS011;4325;42.520;27.448;2023-03-14T11:25:51;8.00;;;2.60;;
8574;SDS011;4325;42.520;27.448;2023-03-14T11:28:26;4.75;;;3.00;;
8574;SDS011;4325;42.520;27.448;2023-03-14T11:31:02;6.35;;;2.88;;
8574;SDS011;4325;42.520;27.448;2023-03-14T11:33:37;11.20;;;3.83;;
8574;SDS011;4325;42.520;27.448;2023-03-14T11:36:06;7.03;;;2.70;;
8574;SDS011;4325;42.520;27.448;2023-03-14T11:38:34;4.55;;;2.72;;
8574;SDS011;4325;42.520;27.448;2023-03-14T11:41:10;4.40;;;2.75;;
8574;SDS011;4325;42.520;27.448;2023-03-14T11:43:40;6.97;;;2.95;;
8574;SDS011;4325;42.520;27.448;2023-03-14T11:46:14;5.88;;;2.67;;
8574;SDS011;4325;42.520;27.448;2023-03-14T11:48:45;6.10;;;2.58;;
8574;SDS011;4325;42.520;27.448;2023-03-14T11:51:23;7.28;;;3.10;;
8574;SDS011;4325;42.520;27.448;2023-03-14T11:53:55;4.25;;;2.05;;
8574;SDS011;4325;42.520;27.448;2023-03-14T11:56:29;5.95;;;2.45;;
8574;SDS011;4325;42.520;27.448;2023-03-14T11:59:01;8.05;;;2.40;;
8574;SDS011;4325;42.520;27.448;2023-03-14T12:01:34;7.20;;;2.63;;
8574;SDS011;4325;42.520;27.448;2023-03-14T12:04:12;7.13;;;2.92;;
8574;SDS011;4325;42.520;27.448;2023-03-14T12:06:46;9.60;;;2.75;;
8574;SDS011;4325;42.520;27.448;2023-03-14T12:09:15;6.70;;;2.33;;
8574;SDS011;4325;42.520;27.448;2023-03-14T12:11:46;6.32;;;2.97;;
8574;SDS011;4325;42.520;27.448;2023-03-14T12:14:22;6.97;;;2.60;;
8574;SDS011;4325;42.520;27.448;2023-03-14T12:16:53;4.75;;;2.40;;
8574;SDS011;4325;42.520;27.448;2023-03-14T12:24:56;5.70;;;2.13;;
8574;SDS011;4325;42.520;27.448;2023-03-14T12:27:44;9.52;;;2.50;;
8574;SDS011;4325;42.520;27.448;2023-03-14T12:30:39;6.78;;;2.22;;
8574;SDS011;4325;42.520;27.448;2023-03-14T12:33:11;4.13;;;2.00;;
8574;SDS011;4325;42.520;27.448;2023-03-14T12:35:45;4.68;;;2.05;;
8574;SDS011;4325;42.520;27.448;2023-03-14T12:38:14;4.70;;;2.20;;
8574;SDS011;4325;42.520;27.448;2023-03-14T12:40:49;3.13;;;1.80;;
8574;SDS011;4325;42.520;27.448;2023-03-14T12:43:27;4.80;;;2.25;;
8574;SDS011;4325;42.520;27.448;2023-03-14T12:46:09;5.28;;;2.10;;
8574;SDS011;4325;42.520;27.448;2023-03-14T12:48:45;4.90;;;2.00;;
8574;SDS011;4325;42.520;27.448;2023-03-14T12:51:14;3.95;;;2.10;;
8574;SDS011;4325;42.520;27.448;2023-03-14T12:53:54;2.83;;;1.98;;
8574;SDS011;4325;42.520;27.448;2023-03-14T12:56:41;6.28;;;2.42;;
8574;SDS011;4325;42.520;27.448;2023-03-14T12:59:30;6.05;;;2.67;;
8574;SDS011;4325;42.520;27.448;2023-03-14T13:02:00;5.53;;;2.43;;
8574;SDS011;4325;42.520;27.448;2023-03-14T13:04:31;3.30;;;2.20;;
8574;SDS011;4325;42.520;27.448;2023-03-14T13:07:00;2.83;;;2.20;;
8574;SDS011;4325;42.520;27.448;2023-03-14T13:12:19;3.73;;;2.30;;
8574;SDS011;4325;42.520;27.448;2023-03-14T13:14:54;4.60;;;2.37;;
8574;SDS011;4325;42.520;27.448;2023-03-14T13:17:26;7.37;;;2.40;;
8574;SDS011;4325;42.520;27.448;2023-03-14T13:19:56;2.87;;;2.00;;
8574;SDS011;4325;42.520;27.448;2023-03-14T13:22:27;4.20;;;1.97;;
8574;SDS011;4325;42.520;27.448;2023-03-14T13:24:59;2.40;;;1.73;;
8574;SDS011;4325;42.520;27.448;2023-03-14T13:27:27;3.17;;;1.83;;
8574;SDS011;4325;42.520;27.448;2023-03-14T13:29:59;7.10;;;2.87;;
8574;SDS011;4325;42.520;27.448;2023-03-14T13:32:40;5.40;;;2.17;;
8574;SDS011;4325;42.520;27.448;2023-03-14T13:35:14;4.50;;;2.30;;
8574;SDS011;4325;42.520;27.448;2023-03-14T13:37:42;3.93;;;2.20;;
8574;SDS011;4325;42.520;27.448;2023-03-14T13:40:17;3.53;;;2.63;;
8574;SDS011;4325;42.520;27.448;2023-03-14T13:42:46;7.90;;;2.43;;
8574;SDS011;4325;42.520;27.448;2023-03-14T13:45:15;8.07;;;2.50;;
8574;SDS011;4325;42.520;27.448;2023-03-14T13:47:42;4.67;;;2.70;;
8574;SDS011;4325;42.520;27.448;2023-03-14T13:50:15;6.97;;;2.60;;
8574;SDS011;4325;42.520;27.448;2023-03-14T13:52:44;8.80;;;3.03;;
8574;SDS011;4325;42.520;27.448;2023-03-14T13:55:14;6.03;;;2.70;;
8574;SDS011;4325;42.520;27.448;2023-03-14T13:57:43;4.47;;;2.60;;
8574;SDS011;4325;42.520;27.448;2023-03-14T14:00:19;8.33;;;2.20;;
8574;SDS011;4325;42.520;27.448;2023-03-14T14:02:48;6.60;;;2.80;;
8574;SDS011;4325;42.520;27.448;2023-03-14T14:05:16;5.53;;;2.33;;
8574;SDS011;4325;42.520;27.448;2023-03-14T14:07:43;3.57;;;2.33;;
8574;SDS011;4325;42.520;27.448;2023-03-14T14:10:11;4.43;;;2.40;;
8574;SDS011;4325;42.520;27.448;2023-03-14T14:12:40;4.13;;;2.20;;
8574;SDS011;4325;42.520;27.448;2023-03-14T14:15:15;5.27;;;2.00;;
8574;SDS011;4325;42.520;27.448;2023-03-14T14:17:48;3.97;;;2.00;;
8574;SDS011;4325;42.520;27.448;2023-03-14T14:20:20;5.37;;;2.33;;
8574;SDS011;4325;42.520;27.448;2023-03-14T14:22:56;5.90;;;2.30;;
8574;SDS011;4325;42.520;27.448;2023-03-14T14:25:24;4.17;;;2.30;;
8574;SDS011;4325;42.520;27.448;2023-03-14T14:27:51;5.23;;;2.17;;
8574;SDS011;4325;42.520;27.448;2023-03-14T14:30:27;4.27;;;1.80;;
8574;SDS011;4325;42.520;27.448;2023-03-14T14:33:10;2.87;;;1.83;;
8574;SDS011;4325;42.520;27.448;2023-03-14T14:35:44;5.97;;;2.07;;
8574;SDS011;4325;42.520;27.448;2023-03-14T14:38:18;3.10;;;1.90;;
8574;SDS011;4325;42.520;27.448;2023-03-14T14:40:47;6.30;;;1.93;;
8574;SDS011;4325;42.520;27.448;2023-03-14T14:43:17;4.57;;;1.87;;
8574;SDS011;4325;42.520;27.448;2023-03-14T14:45:49;4.70;;;1.83;;
8574;SDS011;4325;42.520;27.448;2023-03-14T14:48:19;4.23;;;1.97;;
8574;SDS011;4325;42.520;27.448;2023-03-14T14:50:54;8.90;;;2.00;;
8574;SDS011;4325;42.520;27.448;2023-03-14T14:53:26;2.73;;;1.70;;
8574;SDS011;4325;42.520;27.448;2023-03-14T14:55:57;4.77;;;1.90;;
8574;SDS011;4325;42.520;27.448;2023-03-14T14:58:26;6.47;;;2.30;;
8574;SDS011;4325;42.520;27.448;2023-03-14T15:00:57;7.43;;;1.70;;
8574;SDS011;4325;42.520;27.448;2023-03-14T15:03:29;5.43;;;2.27;;
8574;SDS011;4325;42.520;27.448;2023-03-14T15:05:57;3.43;;;2.00;;
8574;SDS011;4325;42.520;27.448;2023-03-14T15:08:24;4.27;;;1.80;;
8574;SDS011;4325;42.520;27.448;2023-03-14T15:10:53;3.17;;;2.13;;
8574;SDS011;4325;42.520;27.448;2023-03-14T15:13:20;3.20;;;1.90;;